createdAt,value
2023-07-28T00:00:10.985Z,93.90
2023-07-28T00:00:22.867Z,93.80
2023-07-28T00:00:34.654Z,93.70
2023-07-28T00:00:46.445Z,93.70
2023-07-28T00:00:58.200Z,93.60
2023-07-28T00:01:10.005Z,93.50
2023-07-28T00:01:21.893Z,93.50
2023-07-28T00:01:33.802Z,93.60
2023-07-28T00:01:45.737Z,93.90
2023-07-28T00:01:57.591Z,93.90
2023-07-28T00:02:09.488Z,94.00
2023-07-28T00:02:21.302Z,93.80
2023-07-28T00:02:33.133Z,93.70
2023-07-28T00:02:44.982Z,93.70
2023-07-28T00:02:56.955Z,93.90
2023-07-28T00:03:08.763Z,93.80
2023-07-28T00:03:20.901Z,93.70
2023-07-28T00:03:32.645Z,93.70
2023-07-28T00:03:44.799Z,93.80
2023-07-28T00:03:57.013Z,94.00
2023-07-28T00:04:10.770Z,94.00
2023-07-28T00:04:22.580Z,94.20
2023-07-28T00:04:37.570Z,94.00
2023-07-28T00:04:49.372Z,94.00
2023-07-28T00:05:01.191Z,94.10
2023-07-28T00:05:12.957Z,94.00
2023-07-28T00:05:24.665Z,94.10
2023-07-28T00:05:37.471Z,94.00
2023-07-28T00:05:49.231Z,94.00
2023-07-28T00:06:01.023Z,94.10
2023-07-28T00:06:12.844Z,94.00
2023-07-28T00:06:24.916Z,94.10
2023-07-28T00:06:36.669Z,93.90
2023-07-28T00:06:48.467Z,93.80
2023-07-28T00:07:00.214Z,93.70
2023-07-28T00:07:12.004Z,93.60
2023-07-28T00:07:23.802Z,93.90
2023-07-28T00:07:37.362Z,93.90
2023-07-28T00:07:49.119Z,93.80
2023-07-28T00:08:00.886Z,94.10
2023-07-28T00:08:12.689Z,94.20
2023-07-28T00:08:24.437Z,94.10
2023-07-28T00:08:36.220Z,94.10
2023-07-28T00:08:47.995Z,94.10
2023-07-28T00:08:59.788Z,94.20
2023-07-28T00:09:12.002Z,94.40
2023-07-28T00:09:27.024Z,94.30
2023-07-28T00:09:38.784Z,94.40
2023-07-28T00:09:50.510Z,94.20
2023-07-28T00:10:02.548Z,94.20
2023-07-28T00:10:14.274Z,94.40
2023-07-28T00:10:26.050Z,94.30
2023-07-28T00:10:44.034Z,94.10
2023-07-28T00:10:55.760Z,94.20
2023-07-28T00:11:14.908Z,94.40
2023-07-28T00:11:26.778Z,94.50
2023-07-28T00:11:38.617Z,94.40
2023-07-28T00:11:50.428Z,94.50
2023-07-28T00:12:02.335Z,94.50
2023-07-28T00:12:14.104Z,94.50
2023-07-28T00:12:25.874Z,94.70
2023-07-28T00:12:38.022Z,94.30
2023-07-28T00:12:49.841Z,94.30
2023-07-28T00:13:03.565Z,94.60
2023-07-28T00:13:15.305Z,94.50
2023-07-28T00:13:27.130Z,94.90
2023-07-28T00:13:39.680Z,94.60
2023-07-28T00:13:51.586Z,94.70
2023-07-28T00:14:03.427Z,94.60
2023-07-28T00:14:15.573Z,94.40
2023-07-28T00:14:27.939Z,94.40
2023-07-28T00:14:40.145Z,94.60
2023-07-28T00:14:51.853Z,94.30
2023-07-28T00:15:03.748Z,94.60
2023-07-28T00:15:15.603Z,94.80
2023-07-28T00:15:27.352Z,94.90
2023-07-28T00:15:39.358Z,94.80
2023-07-28T00:15:51.137Z,94.80
2023-07-28T00:16:02.953Z,94.80
2023-07-28T00:16:15.587Z,94.70
2023-07-28T00:16:27.470Z,94.90
2023-07-28T00:16:39.423Z,94.90
2023-07-28T00:16:52.197Z,94.80
2023-07-28T00:17:04.050Z,94.70
2023-07-28T00:17:15.801Z,94.70
2023-07-28T00:17:27.566Z,94.70
2023-07-28T00:17:39.382Z,94.60
2023-07-28T00:17:51.357Z,94.60
2023-07-28T00:18:03.218Z,94.70
2023-07-28T00:18:14.999Z,94.50
2023-07-28T00:18:26.744Z,95.10
2023-07-28T00:18:38.535Z,94.90
2023-07-28T00:18:50.285Z,94.90
2023-07-28T00:19:02.032Z,94.90
2023-07-28T00:19:13.773Z,95.00
2023-07-28T00:19:25.607Z,95.00
2023-07-28T00:19:37.398Z,95.10
2023-07-28T00:19:49.123Z,95.10
2023-07-28T00:20:00.881Z,95.10
2023-07-28T00:20:12.740Z,95.10
2023-07-28T00:20:24.473Z,95.20
2023-07-28T00:20:36.216Z,95.20
2023-07-28T00:20:48.006Z,95.00
2023-07-28T00:20:59.751Z,95.10
2023-07-28T00:21:11.499Z,95.10
2023-07-28T00:21:23.563Z,95.00
2023-07-28T00:21:35.306Z,95.00
2023-07-28T00:21:47.042Z,95.20
2023-07-28T00:21:58.811Z,95.20
2023-07-28T00:22:10.561Z,95.10
2023-07-28T00:22:22.302Z,95.20
2023-07-28T00:22:34.080Z,95.30
2023-07-28T00:22:45.947Z,95.30
2023-07-28T00:22:57.974Z,95.30
2023-07-28T00:23:09.707Z,95.30
2023-07-28T00:23:21.477Z,95.30
2023-07-28T00:23:33.426Z,95.40
2023-07-28T00:23:45.219Z,95.40
2023-07-28T00:23:57.001Z,95.50
2023-07-28T00:24:08.756Z,95.40
2023-07-28T00:24:20.522Z,95.60
2023-07-28T00:24:32.319Z,95.60
2023-07-28T00:24:44.103Z,95.60
2023-07-28T00:24:55.898Z,95.60
2023-07-28T00:25:08.092Z,95.50
2023-07-28T00:25:19.883Z,95.50
2023-07-28T00:25:31.675Z,95.60
2023-07-28T00:25:43.464Z,95.50
2023-07-28T00:25:55.163Z,95.40
2023-07-28T00:26:07.511Z,95.50
2023-07-28T00:26:19.274Z,95.40
2023-07-28T00:26:31.066Z,95.60
2023-07-28T00:26:42.898Z,95.60
2023-07-28T00:26:54.628Z,95.60
2023-07-28T00:27:06.759Z,95.50
2023-07-28T00:27:19.469Z,95.40
2023-07-28T00:27:31.225Z,95.60
2023-07-28T00:27:42.986Z,95.60
2023-07-28T00:27:54.851Z,95.80
2023-07-28T00:28:06.860Z,95.70
2023-07-28T00:28:18.724Z,95.60
2023-07-28T00:28:30.533Z,95.70
2023-07-28T00:28:42.338Z,95.70
2023-07-28T00:28:54.067Z,95.80
2023-07-28T00:29:07.604Z,95.80
2023-07-28T00:29:19.323Z,95.80
2023-07-28T00:29:31.040Z,95.90
2023-07-28T00:29:43.090Z,95.90
2023-07-28T00:29:54.982Z,96.30
2023-07-28T00:30:07.309Z,96.00
2023-07-28T00:30:19.192Z,96.00
2023-07-28T00:30:32.396Z,96.10
2023-07-28T00:30:44.266Z,96.00
2023-07-28T00:30:56.041Z,96.00
2023-07-28T00:31:07.937Z,96.00
2023-07-28T00:31:19.698Z,96.00
2023-07-28T00:31:31.409Z,96.00
2023-07-28T00:31:43.236Z,96.20
2023-07-28T00:31:55.040Z,96.20
2023-07-28T00:32:07.252Z,96.00
2023-07-28T00:32:19.024Z,96.10
2023-07-28T00:32:30.827Z,96.40
2023-07-28T00:32:42.614Z,96.40
2023-07-28T00:32:54.391Z,96.30
2023-07-28T00:33:06.193Z,96.30
2023-07-28T00:33:18.278Z,96.50
2023-07-28T00:33:30.034Z,96.40
2023-07-28T00:33:43.082Z,96.40
2023-07-28T00:33:54.849Z,96.50
2023-07-28T00:34:06.648Z,96.60
2023-07-28T00:34:18.510Z,96.60
2023-07-28T00:34:30.883Z,96.60
2023-07-28T00:34:42.599Z,96.60
2023-07-28T00:34:54.512Z,96.40
2023-07-28T00:35:06.680Z,96.30
2023-07-28T00:35:18.741Z,96.40
2023-07-28T00:35:30.449Z,96.50
2023-07-28T00:35:42.259Z,96.70
2023-07-28T00:35:53.996Z,96.70
2023-07-28T00:36:05.786Z,96.50
2023-07-28T00:36:17.529Z,96.40
2023-07-28T00:36:29.500Z,96.60
2023-07-28T00:36:42.137Z,96.70
2023-07-28T00:36:53.942Z,96.50
2023-07-28T00:37:05.946Z,96.60
2023-07-28T00:37:17.724Z,96.50
2023-07-28T00:37:29.798Z,96.70
2023-07-28T00:37:41.546Z,96.70
2023-07-28T00:37:53.265Z,96.60
2023-07-28T00:38:05.033Z,96.50
2023-07-28T00:38:16.831Z,96.60
2023-07-28T00:38:28.614Z,96.50
2023-07-28T00:38:40.318Z,96.40
2023-07-28T00:38:52.089Z,96.70
2023-07-28T00:39:03.924Z,96.60
2023-07-28T00:39:15.704Z,96.70
2023-07-28T00:39:27.443Z,96.90
2023-07-28T00:39:39.213Z,96.60
2023-07-28T00:39:50.993Z,96.60
2023-07-28T00:40:02.814Z,96.80
2023-07-28T00:40:14.656Z,96.70
2023-07-28T00:40:26.406Z,96.50
2023-07-28T00:40:38.170Z,96.50
2023-07-28T00:40:49.956Z,96.50
2023-07-28T00:41:01.712Z,96.60
2023-07-28T00:41:13.471Z,96.80
2023-07-28T00:41:25.264Z,97.00
2023-07-28T00:41:36.959Z,96.80
2023-07-28T00:41:48.653Z,96.60
2023-07-28T00:42:00.381Z,96.60
2023-07-28T00:42:12.196Z,96.60
2023-07-28T00:42:23.958Z,96.40
2023-07-28T00:42:37.249Z,96.40
2023-07-28T00:42:49.222Z,96.60
2023-07-28T00:43:01.166Z,96.70
2023-07-28T00:43:12.968Z,96.60
2023-07-28T00:43:24.723Z,96.80
2023-07-28T00:43:36.509Z,96.80
2023-07-28T00:43:48.269Z,96.80
2023-07-28T00:44:00.058Z,97.00
2023-07-28T00:44:11.799Z,96.80
2023-07-28T00:44:23.573Z,97.00
2023-07-28T00:44:35.360Z,97.10
2023-07-28T00:44:47.117Z,97.20
2023-07-28T00:44:58.871Z,97.20
2023-07-28T00:45:10.867Z,97.20
2023-07-28T00:45:23.002Z,97.10
2023-07-28T00:45:34.832Z,97.10
2023-07-28T00:45:46.625Z,97.00
2023-07-28T00:45:58.428Z,97.20
2023-07-28T00:46:11.192Z,97.40
2023-07-28T00:46:23.051Z,97.40
2023-07-28T00:46:34.946Z,97.30
2023-07-28T00:46:46.872Z,97.20
2023-07-28T00:46:59.023Z,97.10
2023-07-28T00:47:10.742Z,97.30
2023-07-28T00:47:22.431Z,97.40
2023-07-28T00:47:34.424Z,97.40
2023-07-28T00:47:46.592Z,97.30
2023-07-28T00:47:59.115Z,97.40
2023-07-28T00:48:14.291Z,97.50
2023-07-28T00:48:27.131Z,97.60
2023-07-28T00:48:38.835Z,97.50
2023-07-28T00:48:50.631Z,97.60
2023-07-28T00:49:02.486Z,97.60
2023-07-28T00:49:14.327Z,97.50
2023-07-28T00:49:26.123Z,97.40
2023-07-28T00:49:38.314Z,97.60
2023-07-28T00:49:50.042Z,97.50
2023-07-28T00:50:02.352Z,97.60
2023-07-28T00:50:14.146Z,97.50
2023-07-28T00:50:26.274Z,97.40
2023-07-28T00:50:38.170Z,97.40
2023-07-28T00:50:50.086Z,97.50
2023-07-28T00:51:01.946Z,97.40
2023-07-28T00:51:13.706Z,97.40
2023-07-28T00:51:25.507Z,97.50
2023-07-28T00:51:37.510Z,97.60
2023-07-28T00:51:49.249Z,97.60
2023-07-28T00:52:01.083Z,97.50
2023-07-28T00:52:12.795Z,97.60
2023-07-28T00:52:24.546Z,97.70
2023-07-28T00:52:36.288Z,97.70
2023-07-28T00:52:48.330Z,97.70
2023-07-28T00:53:00.102Z,97.80
2023-07-28T00:53:11.874Z,97.80
2023-07-28T00:53:23.645Z,97.80
2023-07-28T00:53:35.535Z,97.70
2023-07-28T00:53:47.403Z,97.80
2023-07-28T00:54:00.422Z,97.70
2023-07-28T00:54:12.232Z,97.70
2023-07-28T00:54:24.109Z,97.80
2023-07-28T00:54:35.972Z,98.00
2023-07-28T00:54:47.730Z,98.00
2023-07-28T00:54:59.505Z,97.90
2023-07-28T00:55:11.242Z,98.10
2023-07-28T00:55:23.626Z,98.00
2023-07-28T00:55:35.364Z,98.00
2023-07-28T00:55:47.090Z,98.10
2023-07-28T00:55:58.844Z,98.20
2023-07-28T00:56:10.802Z,98.40
2023-07-28T00:56:22.596Z,98.20
2023-07-28T00:56:34.661Z,98.10
2023-07-28T00:56:46.661Z,98.10
2023-07-28T00:56:58.394Z,98.30
2023-07-28T00:57:10.683Z,98.20
2023-07-28T00:57:22.548Z,98.10
2023-07-28T00:57:34.976Z,98.30
2023-07-28T00:57:46.682Z,98.20
2023-07-28T00:57:58.496Z,98.20
2023-07-28T00:58:10.424Z,98.40
2023-07-28T00:58:22.448Z,98.50
2023-07-28T00:58:34.252Z,98.60
2023-07-28T00:58:46.096Z,98.50
2023-07-28T00:58:58.086Z,98.60
2023-07-28T00:59:09.862Z,98.60
2023-07-28T00:59:21.620Z,98.50
2023-07-28T00:59:33.439Z,98.40
2023-07-28T00:59:48.791Z,98.70
2023-07-28T01:00:03.253Z,98.90
2023-07-28T01:00:15.032Z,98.80
2023-07-28T01:00:26.821Z,98.80
2023-07-28T01:00:38.581Z,98.90
2023-07-28T01:00:50.276Z,98.90
2023-07-28T01:01:02.037Z,98.80
2023-07-28T01:01:13.785Z,98.90
2023-07-28T01:01:25.552Z,98.90
2023-07-28T01:01:37.390Z,98.80
2023-07-28T01:01:49.151Z,98.80
2023-07-28T01:02:00.909Z,98.60
2023-07-28T01:02:13.250Z,98.60
2023-07-28T01:02:25.054Z,98.60
2023-07-28T01:02:37.435Z,98.80
2023-07-28T01:02:49.302Z,98.70
2023-07-28T01:03:01.107Z,98.90
2023-07-28T01:03:12.866Z,99.10
2023-07-28T01:03:24.638Z,99.10
2023-07-28T01:03:36.369Z,99.00
2023-07-28T01:03:48.136Z,99.20
2023-07-28T01:04:00.007Z,99.20
2023-07-28T01:04:11.827Z,99.10
2023-07-28T01:04:23.563Z,99.20
2023-07-28T01:04:35.386Z,99.20
2023-07-28T01:04:47.213Z,99.20
2023-07-28T01:04:59.286Z,99.30
2023-07-28T01:05:11.182Z,99.20
2023-07-28T01:05:24.909Z,99.30
2023-07-28T01:05:50.501Z,99.40
2023-07-28T01:06:16.212Z,99.40
2023-07-28T01:06:42.539Z,99.10
2023-07-28T01:07:15.211Z,99.30
2023-07-28T01:07:40.053Z,99.50
2023-07-28T01:07:51.799Z,99.20
2023-07-28T01:08:07.478Z,99.40
2023-07-28T01:08:54.637Z,99.60
2023-07-28T01:09:10.737Z,99.60
2023-07-28T01:09:23.866Z,99.40
2023-07-28T01:09:41.030Z,99.60
2023-07-28T01:10:14.338Z,99.50
2023-07-28T01:10:28.704Z,99.80
2023-07-28T01:10:40.469Z,99.80
2023-07-28T01:10:52.340Z,99.90
2023-07-28T01:11:04.378Z,99.70
2023-07-28T01:11:16.129Z,99.70
2023-07-28T01:11:27.853Z,99.60
2023-07-28T01:11:39.641Z,99.60
2023-07-28T01:11:57.647Z,99.70
2023-07-28T01:12:10.612Z,99.90
2023-07-28T01:12:23.859Z,99.90
2023-07-28T01:12:35.738Z,99.90
2023-07-28T01:12:47.544Z,99.80
2023-07-28T01:13:00.033Z,99.60
2023-07-28T01:13:11.778Z,99.60
2023-07-28T01:13:23.584Z,99.70
2023-07-28T01:13:35.779Z,99.90
2023-07-28T01:13:47.579Z,99.90
2023-07-28T01:13:59.444Z,99.70
2023-07-28T01:14:11.239Z,99.80
2023-07-28T01:14:23.035Z,99.90
2023-07-28T01:14:34.742Z,99.90
2023-07-28T01:14:46.482Z,99.90
2023-07-28T01:14:58.372Z,99.90
2023-07-28T01:15:10.583Z,99.90
2023-07-28T01:15:22.565Z,99.90
2023-07-28T01:15:34.298Z,99.90
2023-07-28T01:15:46.074Z,99.90
2023-07-28T01:15:59.088Z,99.90
2023-07-28T01:16:10.961Z,99.90
2023-07-28T01:16:22.815Z,99.90
2023-07-28T01:16:34.807Z,99.90
2023-07-28T01:16:46.695Z,99.90
2023-07-28T01:16:58.432Z,99.90
2023-07-28T01:17:10.230Z,99.90
2023-07-28T01:17:25.156Z,99.90
2023-07-28T01:17:37.134Z,99.90
2023-07-28T01:17:49.015Z,99.90
2023-07-28T01:18:01.001Z,99.90
2023-07-28T01:18:12.788Z,99.90
2023-07-28T01:18:24.657Z,99.90
2023-07-28T01:18:36.585Z,99.90
2023-07-28T01:18:48.446Z,99.90
2023-07-28T01:19:00.264Z,99.90
2023-07-28T01:19:12.076Z,99.90
2023-07-28T01:19:24.056Z,99.90
2023-07-28T01:19:35.918Z,99.90
2023-07-28T01:19:47.787Z,99.90
2023-07-28T01:19:59.729Z,99.90
2023-07-28T01:20:11.896Z,99.90
2023-07-28T01:20:24.964Z,99.90
2023-07-28T01:20:36.743Z,99.90
2023-07-28T01:20:48.946Z,99.90
2023-07-28T01:21:02.092Z,99.90
2023-07-28T01:21:25.205Z,99.90
2023-07-28T01:21:36.948Z,99.90
2023-07-28T01:21:51.101Z,99.90
2023-07-28T01:22:27.054Z,99.90
2023-07-28T01:22:49.742Z,99.90
2023-07-28T01:23:15.246Z,99.90
2023-07-28T01:23:53.737Z,99.90
2023-07-28T01:24:23.075Z,99.90
2023-07-28T01:24:46.169Z,99.90
2023-07-28T01:25:13.836Z,99.90
2023-07-28T01:25:43.317Z,99.90
2023-07-28T01:26:10.328Z,99.90
2023-07-28T01:26:32.724Z,99.90
2023-07-28T01:26:44.649Z,99.90
2023-07-28T01:26:56.356Z,99.90
2023-07-28T01:27:08.421Z,99.90
2023-07-28T01:27:20.170Z,99.90
2023-07-28T01:27:32.032Z,99.90
2023-07-28T01:27:44.317Z,99.90
2023-07-28T01:27:56.139Z,99.90
2023-07-28T01:28:07.964Z,99.90
2023-07-28T01:28:19.894Z,99.90
2023-07-28T01:28:31.747Z,99.90
2023-07-28T01:28:43.649Z,99.90
2023-07-28T01:28:55.415Z,99.90
2023-07-28T01:29:07.246Z,99.90
2023-07-28T01:29:20.253Z,99.90
2023-07-28T01:29:32.126Z,99.90
2023-07-28T01:29:43.908Z,99.90
2023-07-28T01:29:55.625Z,99.90
2023-07-28T01:30:07.694Z,99.90
2023-07-28T01:30:20.901Z,99.90
2023-07-28T01:30:32.772Z,99.90
2023-07-28T01:30:44.692Z,99.90
2023-07-28T01:30:56.607Z,99.90
2023-07-28T01:31:08.707Z,99.90
2023-07-28T01:31:20.600Z,99.90
2023-07-28T01:31:32.539Z,99.90
2023-07-28T01:31:44.329Z,99.90
2023-07-28T01:31:56.185Z,99.90
2023-07-28T01:32:08.197Z,99.90
2023-07-28T01:32:19.983Z,99.90
2023-07-28T01:32:31.711Z,99.90
2023-07-28T01:32:43.618Z,99.90
2023-07-28T01:32:56.941Z,99.90
2023-07-28T01:33:09.299Z,99.90
2023-07-28T01:33:21.205Z,99.90
2023-07-28T01:33:33.025Z,99.90
2023-07-28T01:33:44.752Z,99.90
2023-07-28T01:33:56.496Z,99.90
2023-07-28T01:34:08.218Z,99.90
2023-07-28T01:34:20.046Z,99.90
2023-07-28T01:34:31.910Z,99.90
2023-07-28T01:34:43.620Z,99.90
2023-07-28T01:34:55.547Z,99.90
2023-07-28T01:35:08.008Z,99.90
2023-07-28T01:35:19.709Z,99.90
2023-07-28T01:35:31.399Z,99.90
2023-07-28T01:35:43.305Z,99.90
2023-07-28T01:35:55.106Z,99.90
2023-07-28T01:36:06.876Z,99.90
2023-07-28T01:36:18.618Z,99.90
2023-07-28T01:36:30.783Z,99.90
2023-07-28T01:36:42.966Z,99.90
2023-07-28T01:36:54.748Z,99.90
2023-07-28T01:37:06.824Z,99.90
2023-07-28T01:37:18.539Z,99.90
2023-07-28T01:37:30.711Z,99.90
2023-07-28T01:37:42.459Z,99.90
2023-07-28T01:37:54.472Z,99.90
2023-07-28T01:38:06.341Z,99.90
2023-07-28T01:38:18.078Z,99.90
2023-07-28T01:38:29.892Z,99.90
2023-07-28T01:38:42.039Z,99.90
2023-07-28T01:38:55.135Z,99.90
2023-07-28T01:39:06.933Z,99.90
2023-07-28T01:39:18.716Z,99.90
2023-07-28T01:39:30.498Z,99.90
2023-07-28T01:39:42.304Z,99.90
2023-07-28T01:39:55.674Z,99.90
2023-07-28T01:40:08.268Z,99.90
2023-07-28T01:40:20.388Z,99.90
2023-07-28T01:40:32.149Z,99.90
2023-07-28T01:40:43.929Z,99.90
2023-07-28T01:40:55.793Z,99.90
2023-07-28T01:41:07.960Z,99.90
2023-07-28T01:41:19.749Z,99.90
2023-07-28T01:41:31.508Z,99.90
2023-07-28T01:41:45.268Z,99.90
2023-07-28T01:41:57.030Z,99.90
2023-07-28T01:42:08.754Z,99.90
2023-07-28T01:42:20.560Z,99.90
2023-07-28T01:42:32.271Z,99.90
2023-07-28T01:42:44.119Z,99.90
2023-07-28T01:42:55.867Z,99.90
2023-07-28T01:43:07.609Z,99.90
2023-07-28T01:43:19.641Z,99.90
2023-07-28T01:43:31.414Z,99.90
2023-07-28T01:43:43.417Z,99.90
2023-07-28T01:43:56.950Z,99.90
2023-07-28T01:44:08.982Z,99.90
2023-07-28T01:44:20.770Z,99.90
2023-07-28T01:44:32.541Z,99.90
2023-07-28T01:44:44.438Z,99.90
2023-07-28T01:44:56.197Z,99.90
2023-07-28T01:45:08.744Z,99.90
2023-07-28T01:45:20.511Z,99.90
2023-07-28T01:45:33.248Z,99.90
2023-07-28T01:45:45.072Z,99.90
2023-07-28T01:45:56.931Z,99.90
2023-07-28T01:46:08.972Z,99.90
2023-07-28T01:46:20.744Z,99.90
2023-07-28T01:46:32.959Z,99.90
2023-07-28T01:46:44.882Z,99.90
2023-07-28T01:46:56.631Z,99.90
2023-07-28T01:47:08.417Z,99.90
2023-07-28T01:47:20.384Z,99.90
2023-07-28T01:47:32.194Z,99.90
2023-07-28T01:47:44.022Z,99.90
2023-07-28T01:47:55.905Z,99.90
2023-07-28T01:48:09.709Z,99.90
2023-07-28T01:48:21.537Z,99.90
2023-07-28T01:48:33.253Z,99.90
2023-07-28T01:48:45.006Z,99.90
2023-07-28T01:48:56.721Z,99.90
2023-07-28T01:49:09.080Z,99.90
2023-07-28T01:49:21.766Z,99.90
2023-07-28T01:49:33.559Z,99.90
2023-07-28T01:49:45.373Z,99.90
2023-07-28T01:49:57.126Z,99.90
2023-07-28T01:50:08.894Z,99.90
2023-07-28T01:50:20.682Z,99.90
2023-07-28T01:50:32.470Z,99.90
2023-07-28T01:50:44.215Z,99.90
2023-07-28T01:50:56.228Z,99.90
2023-07-28T01:51:07.948Z,99.90
2023-07-28T01:51:19.723Z,99.90
2023-07-28T01:51:31.483Z,99.90
2023-07-28T01:51:43.312Z,99.90
2023-07-28T01:51:55.240Z,99.90
2023-07-28T01:52:07.242Z,99.90
2023-07-28T01:52:19.312Z,99.90
2023-07-28T01:52:31.403Z,99.90
2023-07-28T01:52:43.222Z,99.90
2023-07-28T01:52:55.026Z,99.90
2023-07-28T01:53:07.077Z,99.90
2023-07-28T01:53:19.282Z,99.90
2023-07-28T01:53:31.046Z,99.90
2023-07-28T01:53:42.828Z,99.90
2023-07-28T01:53:54.586Z,99.90
2023-07-28T01:54:06.457Z,99.90
2023-07-28T01:54:18.225Z,99.90
2023-07-28T01:54:30.107Z,99.90
2023-07-28T01:54:41.847Z,99.90
2023-07-28T01:54:53.638Z,99.90
2023-07-28T01:55:07.544Z,99.90
2023-07-28T01:55:19.341Z,99.90
2023-07-28T01:55:31.178Z,99.90
2023-07-28T01:55:42.941Z,99.90
2023-07-28T01:55:54.739Z,99.90
2023-07-28T01:56:06.456Z,99.90
2023-07-28T01:56:18.137Z,99.90
2023-07-28T01:56:29.820Z,99.90
2023-07-28T01:56:41.573Z,99.90
2023-07-28T01:56:53.332Z,99.90
2023-07-28T01:57:05.495Z,99.90
2023-07-28T01:57:17.240Z,99.90
2023-07-28T01:57:29.028Z,99.90
2023-07-28T01:57:41.340Z,99.90
2023-07-28T01:57:57.663Z,99.90
2023-07-28T01:58:10.476Z,99.90
2023-07-28T01:58:22.199Z,99.90
2023-07-28T01:58:34.008Z,99.90
2023-07-28T01:58:45.867Z,99.90
2023-07-28T01:58:57.579Z,99.90
2023-07-28T01:59:09.360Z,99.90
2023-07-28T01:59:21.703Z,99.90
2023-07-28T01:59:33.394Z,99.90
2023-07-28T01:59:45.279Z,99.90
2023-07-28T01:59:57.072Z,99.90
2023-07-28T02:00:09.163Z,99.90
2023-07-28T02:00:20.961Z,99.90
2023-07-28T02:00:32.772Z,99.90
2023-07-28T02:00:44.507Z,99.90
2023-07-28T02:00:56.380Z,99.90
2023-07-28T02:01:08.150Z,99.90
2023-07-28T02:01:19.984Z,99.90
2023-07-28T02:01:31.882Z,99.90
2023-07-28T02:01:44.151Z,99.90
2023-07-28T02:01:55.874Z,99.90
2023-07-28T02:02:07.749Z,99.90
2023-07-28T02:02:19.506Z,99.90
2023-07-28T02:02:31.332Z,99.90
2023-07-28T02:02:43.143Z,99.90
2023-07-28T02:02:55.530Z,99.90
2023-07-28T02:03:08.332Z,99.90
2023-07-28T02:03:20.172Z,99.90
2023-07-28T02:03:31.916Z,99.90
2023-07-28T02:03:43.689Z,99.90
2023-07-28T02:03:55.446Z,99.90
2023-07-28T02:04:07.260Z,99.90
2023-07-28T02:04:19.182Z,99.90
2023-07-28T02:04:31.069Z,99.90
2023-07-28T02:04:42.879Z,99.90
2023-07-28T02:04:54.647Z,99.90
2023-07-28T02:05:07.495Z,99.90
2023-07-28T02:05:19.300Z,99.90
2023-07-28T02:05:31.331Z,99.90
2023-07-28T02:05:43.092Z,99.90
2023-07-28T02:05:54.978Z,99.90
2023-07-28T02:06:06.788Z,99.90
2023-07-28T02:06:19.239Z,99.90
2023-07-28T02:06:32.464Z,99.90
2023-07-28T02:06:44.629Z,99.90
2023-07-28T02:06:56.416Z,99.90
2023-07-28T02:07:08.180Z,99.90
2023-07-28T02:07:19.962Z,99.90
2023-07-28T02:07:31.930Z,99.90
2023-07-28T02:07:43.719Z,99.90
2023-07-28T02:07:56.187Z,99.90
2023-07-28T02:08:07.969Z,99.90
2023-07-28T02:08:19.737Z,99.90
2023-07-28T02:08:31.464Z,99.90
2023-07-28T02:08:43.226Z,99.90
2023-07-28T02:08:55.002Z,99.90
2023-07-28T02:09:06.676Z,99.90
2023-07-28T02:09:18.406Z,99.90
2023-07-28T02:09:30.211Z,99.90
2023-07-28T02:09:42.545Z,99.90
2023-07-28T02:09:54.342Z,99.90
2023-07-28T02:10:06.665Z,99.90
2023-07-28T02:10:18.630Z,99.90
2023-07-28T02:10:30.669Z,99.90
2023-07-28T02:10:43.280Z,99.90
2023-07-28T02:10:55.110Z,99.90
2023-07-28T02:11:06.870Z,99.90
2023-07-28T02:11:18.637Z,99.90
2023-07-28T02:11:30.783Z,99.90
2023-07-28T02:11:42.489Z,99.90
2023-07-28T02:11:54.254Z,99.90
2023-07-28T02:12:06.319Z,99.90
2023-07-28T02:12:18.130Z,99.90
2023-07-28T02:12:29.906Z,99.90
2023-07-28T02:12:41.681Z,99.90
2023-07-28T02:12:53.463Z,99.90
2023-07-28T02:13:05.349Z,99.90
2023-07-28T02:13:17.072Z,99.90
2023-07-28T02:13:28.917Z,99.90
2023-07-28T02:13:40.690Z,99.90
2023-07-28T02:13:52.561Z,99.90
2023-07-28T02:14:04.302Z,99.90
2023-07-28T02:14:16.030Z,99.90
2023-07-28T02:14:27.718Z,99.90
2023-07-28T02:14:39.434Z,99.90
2023-07-28T02:14:52.073Z,99.90
2023-07-28T02:15:04.331Z,99.90
2023-07-28T02:15:16.102Z,99.90
2023-07-28T02:15:27.984Z,99.90
2023-07-28T02:15:41.316Z,99.90
2023-07-28T02:15:53.350Z,99.90
2023-07-28T02:16:05.371Z,99.90
2023-07-28T02:16:17.187Z,99.90
2023-07-28T02:16:29.145Z,99.90
2023-07-28T02:16:41.051Z,99.90
2023-07-28T02:16:52.913Z,99.90
2023-07-28T02:17:04.940Z,99.90
2023-07-28T02:17:16.641Z,99.90
2023-07-28T02:17:28.436Z,99.90
2023-07-28T02:17:40.270Z,99.90
2023-07-28T02:17:52.171Z,99.90
2023-07-28T02:18:04.158Z,99.90
2023-07-28T02:18:16.322Z,99.90
2023-07-28T02:18:28.052Z,99.90
2023-07-28T02:18:39.750Z,99.90
2023-07-28T02:18:51.460Z,99.90
2023-07-28T02:19:03.240Z,99.90
2023-07-28T02:19:15.174Z,99.90
2023-07-28T02:19:26.912Z,99.90
2023-07-28T02:19:38.657Z,99.90
2023-07-28T02:19:50.390Z,99.90
2023-07-28T02:20:04.498Z,99.90
2023-07-28T02:20:16.718Z,99.90
2023-07-28T02:20:28.502Z,99.90
2023-07-28T02:20:40.521Z,99.90
2023-07-28T02:20:52.325Z,99.90
2023-07-28T02:21:04.087Z,99.90
2023-07-28T02:21:15.844Z,99.90
2023-07-28T02:21:29.199Z,99.90
2023-07-28T02:21:42.666Z,99.90
2023-07-28T02:21:54.456Z,99.90
2023-07-28T02:22:06.724Z,99.90
2023-07-28T02:22:19.784Z,99.90
2023-07-28T02:22:31.654Z,99.90
2023-07-28T02:22:43.596Z,99.90
2023-07-28T02:22:55.396Z,99.90
2023-07-28T02:23:07.187Z,99.90
2023-07-28T02:23:18.940Z,99.90
2023-07-28T02:23:31.254Z,99.90
2023-07-28T02:23:43.685Z,99.90
2023-07-28T02:23:55.461Z,99.90
2023-07-28T02:24:07.301Z,99.90
2023-07-28T02:24:19.134Z,99.90
2023-07-28T02:24:31.443Z,99.90
2023-07-28T02:24:43.180Z,99.90
2023-07-28T02:24:54.916Z,99.90
2023-07-28T02:25:07.162Z,99.90
2023-07-28T02:25:18.906Z,99.90
2023-07-28T02:25:30.794Z,99.90
2023-07-28T02:25:42.543Z,99.90
2023-07-28T02:25:54.269Z,99.90
2023-07-28T02:26:06.045Z,99.90
2023-07-28T02:26:17.866Z,99.90
2023-07-28T02:26:29.681Z,99.90
2023-07-28T02:26:41.380Z,99.90
2023-07-28T02:26:55.800Z,99.90
2023-07-28T02:27:07.616Z,99.90
2023-07-28T02:27:19.452Z,99.90
2023-07-28T02:27:31.204Z,99.90
2023-07-28T02:27:42.928Z,99.90
2023-07-28T02:27:54.806Z,99.90
2023-07-28T02:28:06.664Z,99.90
2023-07-28T02:28:18.469Z,99.90
2023-07-28T02:28:30.321Z,99.90
2023-07-28T02:28:42.453Z,99.90
2023-07-28T02:28:54.303Z,99.90
2023-07-28T02:29:06.261Z,99.90
2023-07-28T02:29:18.042Z,99.90
2023-07-28T02:29:29.814Z,99.90
2023-07-28T02:29:43.092Z,99.90
2023-07-28T02:29:54.861Z,99.90
2023-07-28T02:30:07.268Z,99.90
2023-07-28T02:30:19.067Z,99.90
2023-07-28T02:30:30.848Z,99.90
2023-07-28T02:30:42.629Z,99.90
2023-07-28T02:30:54.456Z,99.90
2023-07-28T02:31:06.359Z,99.90
2023-07-28T02:31:18.160Z,99.90
2023-07-28T02:31:29.936Z,99.90
2023-07-28T02:31:41.721Z,99.90
2023-07-28T02:31:53.470Z,99.90
2023-07-28T02:32:05.699Z,99.90
2023-07-28T02:32:17.493Z,99.90
2023-07-28T02:32:29.968Z,99.90
2023-07-28T02:32:42.219Z,99.90
2023-07-28T02:32:54.108Z,99.90
2023-07-28T02:33:06.294Z,99.90
2023-07-28T02:33:18.072Z,99.90
2023-07-28T02:33:30.671Z,99.90
2023-07-28T02:33:42.416Z,99.90
2023-07-28T02:33:54.122Z,99.90
2023-07-28T02:34:05.855Z,99.90
2023-07-28T02:34:17.628Z,99.90
2023-07-28T02:34:29.377Z,99.90
2023-07-28T02:34:41.111Z,99.90
2023-07-28T02:34:52.862Z,99.90
2023-07-28T02:35:05.192Z,99.90
2023-07-28T02:35:19.318Z,99.90
2023-07-28T02:35:33.352Z,99.90
2023-07-28T02:35:45.144Z,99.90
2023-07-28T02:35:57.690Z,99.90
2023-07-28T02:36:09.460Z,99.90
2023-07-28T02:36:21.192Z,99.90
2023-07-28T02:36:33.339Z,99.90
2023-07-28T02:36:45.365Z,99.90
2023-07-28T02:36:57.166Z,99.90
2023-07-28T02:37:08.952Z,99.90
2023-07-28T02:37:20.663Z,99.90
2023-07-28T02:37:32.460Z,99.90
2023-07-28T02:37:44.240Z,99.90
2023-07-28T02:37:56.050Z,99.90
2023-07-28T02:38:07.980Z,99.90
2023-07-28T02:38:19.773Z,99.90
2023-07-28T02:38:31.527Z,99.90
2023-07-28T02:38:43.438Z,99.90
2023-07-28T02:38:55.167Z,99.90
2023-07-28T02:39:06.932Z,99.90
2023-07-28T02:39:18.839Z,99.90
2023-07-28T02:39:30.617Z,99.90
2023-07-28T02:39:42.399Z,99.90
2023-07-28T02:39:54.599Z,99.90
2023-07-28T02:40:07.104Z,99.90